Time;durP1;ratioP1;P1;durP2;ratioP2;P2;SDS_P1;SDS_P2;PMS_P1;PMS_P2;Temp;Humidity;BMP_temperature;BMP_pressure;BME280_temperature;BME280_humidity;BME280_pressure;Samples;Min_cycle;Max_cycle;Signal;HPM_P1;HPM_P2
2023/08/23 00:00:15;;;;;;;;;;;;;;;-144.99;nan;52227.97;5046888;28;19994;-73
2023/08/23 00:02:41;;;;;;;;;;;;;;;-144.99;nan;52227.97;5039039;28;20001;-70
2023/08/23 00:05:08;;;;;;;;;;;;;;;-144.99;nan;52219.81;5049376;28;20352;-68
2023/08/23 00:07:34;;;;;;;;;;;;;;;-144.99;nan;52199.44;5036542;28;19946;-70
2023/08/23 00:10:03;;;;;;;;;;;;;;;-144.99;nan;52195.34;5037897;28;20367;-71
2023/08/23 00:12:31;;;;;;;;;;;;;;;-144.99;nan;52230.00;5045917;28;19999;-69
2023/08/23 00:14:58;;;;;;;;;;;;;;;-144.99;nan;52236.13;5046557;28;19986;-72
2023/08/23 00:17:24;;;;;;;;;;;;;;;-144.99;nan;52199.44;5036754;28;19949;-69
2023/08/23 00:19:51;;;;;;;;;;;;;;;-144.99;nan;52191.28;5045904;28;19990;-70
2023/08/23 00:22:17;;;;;;;;;;;;;;;-144.99;nan;52207.59;5038530;28;20338;-69
2023/08/23 00:24:43;;;;;;;;;;;;;;;-144.99;nan;52199.44;5041454;28;19952;-70
2023/08/23 00:27:10;;;;;;;;;;;;;;;-144.99;nan;52215.75;5044251;28;19951;-70
2023/08/23 00:29:38;;;;;;;;;;;;;;;-144.99;nan;52223.88;5044858;28;19946;-73
2023/08/23 00:32:05;;;;;;;;;;;;;;;-144.99;nan;52252.44;5035245;28;20295;-72
2023/08/23 00:34:31;;;;;;;;;;;;;;;-144.99;nan;52201.47;5030660;28;20314;-69
2023/08/23 00:36:58;;;;;;;;;;;;;;;-144.99;nan;52240.19;5040900;28;19996;-69
2023/08/23 00:39:24;;;;;;;;;;;;;;;-144.99;nan;52258.53;5045829;28;19956;-68
2023/08/23 00:41:51;;;;;;;;;;;;;;;-144.99;nan;52246.31;5046561;28;20505;-70
2023/08/23 00:44:18;;;;;;;;;;;;;;;-144.99;nan;52197.41;5040377;28;20045;-70
2023/08/23 00:46:46;;;;;;;;;;;;;;;-144.99;nan;52195.34;5046318;28;19954;-66
2023/08/23 00:49:12;;;;;;;;;;;;;;;-144.99;nan;52211.66;5036259;28;19951;-66
2023/08/23 00:51:39;;;;;;;;;;;;;;;-144.99;nan;52236.13;5047870;28;20438;-63
2023/08/23 00:54:06;;;;;;;;;;;;;;;-144.99;nan;52189.25;5040282;28;20022;-63
2023/08/23 00:56:34;;;;;;;;;;;;;;;-144.99;nan;52225.94;5042831;28;19955;-63
2023/08/23 00:59:00;;;;;;;;;;;;;;;-144.99;nan;52211.66;5042969;28;20373;-65
2023/08/23 01:01:26;;;;;;;;;;;;;;;-144.99;nan;52215.75;5041026;28;20047;-65
2023/08/23 01:03:56;;;;;;;;;;;;;;;-144.99;nan;52248.34;5040850;28;20104;-64
2023/08/23 01:06:27;;;;;;;;;;;;;;;-144.99;nan;52223.88;5040587;28;19988;-62
2023/08/23 01:08:59;;;;;;;;;;;;;;;-144.99;nan;52236.13;5027053;28;20048;-63
2023/08/23 01:11:31;;;;;;;;;;;;;;;-144.99;nan;52242.22;5041701;28;19948;-63
2023/08/23 01:14:02;;;;;;;;;;;;;;;-144.99;nan;52179.06;5044804;28;20398;-66
2023/08/23 01:16:29;;;;;;;;;;;;;;;-144.99;nan;52217.78;5040382;28;20377;-65
2023/08/23 01:18:58;;;;;;;;;;;;;;;-144.99;nan;52264.66;5042467;28;20444;-65
2023/08/23 01:21:28;;;;;;;;;;;;;;;-144.99;nan;52195.34;5036678;28;19950;-65
2023/08/23 01:23:56;;;;;;;;;;;;;;;-144.99;nan;52236.13;5037193;28;20005;-65
2023/08/23 01:26:23;;;;;;;;;;;;;;;-144.99;nan;52240.19;5047711;28;19995;-64
2023/08/23 01:28:51;;;;;;;;;;;;;;;-144.99;nan;52236.13;5048308;28;20297;-65
2023/08/23 01:31:20;;;;;;;;;;;;;;;-144.99;nan;52232.03;5043752;28;19948;-65
2023/08/23 01:33:51;;;;;;;;;;;;;;;-144.99;nan;52240.19;5043482;28;19976;-64
2023/08/23 01:36:19;;;;;;;;;;;;;;;-144.99;nan;52211.66;5034969;28;20036;-66
2023/08/23 01:38:46;;;;;;;;;;;;;;;-144.99;nan;52203.50;5051763;28;20306;-65
2023/08/23 01:41:14;;;;;;;;;;;;;;;-144.99;nan;52227.97;5044604;28;20019;-65
2023/08/23 01:43:41;;;;;;;;;;;;;;;-144.99;nan;52232.03;5043898;28;20432;-65
2023/08/23 01:46:07;;;;;;;;;;;;;;;-144.99;nan;52238.16;5044898;28;19950;-67
2023/08/23 01:48:34;;;;;;;;;;;;;;;-144.99;nan;52213.69;5043235;28;19988;-67
2023/08/23 01:51:00;;;;;;;;;;;;;;;-144.99;nan;52225.94;5040520;28;19979;-67
2023/08/23 01:53:27;;;;;;;;;;;;;;;-144.99;nan;52234.09;5050658;28;20033;-67
2023/08/23 01:55:53;;;;;;;;;;;;;;;-144.99;nan;52252.44;5046860;28;20463;-65
2023/08/23 01:58:21;;;;;;;;;;;;;;;-144.99;nan;52236.13;5051121;28;19945;-65
2023/08/23 02:00:48;;;;;;;;;;;;;;;-144.99;nan;52227.97;5047233;28;19984;-65
2023/08/23 02:03:14;;;;;;;;;;;;;;;-144.99;nan;52252.44;5043289;28;19997;-66
2023/08/23 02:05:41;;;;;;;;;;;;;;;-144.99;nan;52207.59;5050193;28;19943;-63
2023/08/23 02:08:07;;;;;;;;;;;;;;;-144.99;nan;52213.69;5048554;28;19983;-65
2023/08/23 02:10:34;;;;;;;;;;;;;;;-144.99;nan;52244.28;5038202;28;19946;-66
2023/08/23 02:13:04;;;;;;;;;;;;;;;-144.99;nan;52242.22;5035719;28;20041;-66
2023/08/23 02:15:32;;;;;;;;;;;;;;;-144.99;nan;52223.88;5042917;28;19951;-66
2023/08/23 02:17:58;;;;;;;;;;;;;;;-144.99;nan;52248.34;5047865;28;19944;-68
2023/08/23 02:20:24;;;;;;;;;;;;;;;-144.99;nan;52244.28;5035808;28;20041;-65
2023/08/23 02:22:51;;;;;;;;;;;;;;;-144.99;nan;52256.50;5039241;28;19965;-66
2023/08/23 02:25:17;;;;;;;;;;;;;;;-144.99;nan;52238.16;5039744;28;20413;-67
2023/08/23 02:27:44;;;;;;;;;;;;;;;-144.99;nan;52219.81;5050943;28;19998;-68
2023/08/23 02:30:11;;;;;;;;;;;;;;;-144.99;nan;52225.94;5047276;28;20039;-67
2023/08/23 02:32:39;;;;;;;;;;;;;;;-144.99;nan;52207.59;5038874;28;19971;-65
2023/08/23 02:35:06;;;;;;;;;;;;;;;-144.99;nan;52215.75;5047243;28;20041;-65
2023/08/23 02:37:32;;;;;;;;;;;;;;;-144.99;nan;52244.28;5028732;28;20489;-65
2023/08/23 02:39:59;;;;;;;;;;;;;;;-144.99;nan;52207.59;5044979;28;19946;-68
2023/08/23 02:42:25;;;;;;;;;;;;;;;-144.99;nan;52232.03;5050847;28;20371;-68
2023/08/23 02:44:51;;;;;;;;;;;;;;;-144.99;nan;52252.44;5038218;28;19946;-65
2023/08/23 02:47:18;;;;;;;;;;;;;;;-144.99;nan;52246.31;5042251;28;20409;-66
2023/08/23 02:49:46;;;;;;;;;;;;;;;-144.99;nan;52252.44;5040889;28;19954;-66
2023/08/23 02:52:12;;;;;;;;;;;;;;;-144.99;nan;52240.19;5042622;28;20007;-68
2023/08/23 02:54:39;;;;;;;;;;;;;;;-144.99;nan;52285.03;5037877;28;19949;-68
2023/08/23 02:57:05;;;;;;;;;;;;;;;-144.99;nan;52280.97;5044554;28;19944;-65
2023/08/23 02:59:32;;;;;;;;;;;;;;;-144.99;nan;52268.72;5047637;28;19945;-65
2023/08/23 03:01:58;;;;;;;;;;;;;;;-144.99;nan;52230.00;5050625;28;20366;-65
2023/08/23 03:04:25;;;;;;;;;;;;;;;-144.99;nan;52230.00;5049924;28;19955;-66
2023/08/23 03:06:53;;;;;;;;;;;;;;;-144.99;nan;52230.00;5046433;28;19983;-65
2023/08/23 03:09:19;;;;;;;;;;;;;;;-144.99;nan;52240.19;5042511;28;20055;-65
2023/08/23 03:11:45;;;;;;;;;;;;;;;-144.99;nan;52215.75;5043688;28;19960;-64
2023/08/23 03:14:12;;;;;;;;;;;;;;;-144.99;nan;52252.44;5048322;28;19958;-63
2023/08/23 03:16:38;;;;;;;;;;;;;;;-144.99;nan;52252.44;5045692;28;21460;-64
2023/08/23 03:19:05;;;;;;;;;;;;;;;-144.99;nan;52250.38;5046445;28;20223;-63
2023/08/23 03:21:31;;;;;;;;;;;;;;;-144.99;nan;52219.81;5042597;28;20051;-63
2023/08/23 03:23:59;;;;;;;;;;;;;;;-144.99;nan;52236.13;5031067;28;19981;-65
2023/08/23 03:26:25;;;;;;;;;;;;;;;-144.99;nan;52223.88;5040893;28;20037;-65
2023/08/23 03:28:52;;;;;;;;;;;;;;;-144.99;nan;52270.78;5041917;28;20040;-63
2023/08/23 03:31:18;;;;;;;;;;;;;;;-144.99;nan;52256.50;5031532;28;19944;-62
2023/08/23 03:33:45;;;;;;;;;;;;;;;-144.99;nan;52250.38;5045139;28;19961;-62
2023/08/23 03:36:11;;;;;;;;;;;;;;;-144.99;nan;52236.13;5039164;28;19950;-63
2023/08/23 03:38:38;;;;;;;;;;;;;;;-144.99;nan;52236.13;5037997;28;19945;-64
2023/08/23 03:41:12;;;;;;;;;;;;;;;-144.99;nan;52268.72;5034955;28;19997;-62
2023/08/23 03:43:38;;;;;;;;;;;;;;;-144.99;nan;52240.19;5038580;28;20386;-61
2023/08/23 03:46:05;;;;;;;;;;;;;;;-144.99;nan;52205.53;5047310;28;20061;-61
2023/08/23 03:48:31;;;;;;;;;;;;;;;-144.99;nan;52221.84;5041733;28;20049;-61
2023/08/23 03:50:58;;;;;;;;;;;;;;;-144.99;nan;52250.38;5042345;28;20045;-64
2023/08/23 03:53:24;;;;;;;;;;;;;;;-144.99;nan;52248.34;5037499;28;20016;-64
2023/08/23 03:55:52;;;;;;;;;;;;;;;-144.99;nan;52289.13;5032134;28;19957;-64
2023/08/23 03:58:20;;;;;;;;;;;;;;;-144.99;nan;52219.81;5038112;28;20362;-64
2023/08/23 04:00:49;;;;;;;;;;;;;;;-144.99;nan;52256.50;5032556;28;19992;-63
2023/08/23 04:03:15;;;;;;;;;;;;;;;-144.99;nan;52256.50;5035816;28;19965;-62
2023/08/23 04:05:42;;;;;;;;;;;;;;;-144.99;nan;52236.13;5046432;28;20050;-66
2023/08/23 04:08:08;;;;;;;;;;;;;;;-144.99;nan;52223.88;5041830;28;20372;-65
2023/08/23 04:10:35;;;;;;;;;;;;;;;-144.99;nan;52252.44;5036566;28;19973;-65
2023/08/23 04:13:02;;;;;;;;;;;;;;;-144.99;nan;52244.28;5040215;28;20385;-68
2023/08/23 04:15:29;;;;;;;;;;;;;;;-144.99;nan;52234.09;5046813;28;19949;-67
2023/08/23 04:17:56;;;;;;;;;;;;;;;-144.99;nan;52280.97;5049329;28;20007;-65
2023/08/23 04:20:23;;;;;;;;;;;;;;;-144.99;nan;52276.88;5045164;28;20003;-64
2023/08/23 04:22:49;;;;;;;;;;;;;;;-144.99;nan;52264.66;5038129;28;20058;-68
2023/08/23 04:25:16;;;;;;;;;;;;;;;-144.99;nan;52248.34;5037991;28;20362;-67
2023/08/23 04:27:42;;;;;;;;;;;;;;;-144.99;nan;52313.56;5039354;28;19987;-67
2023/08/23 04:30:09;;;;;;;;;;;;;;;-144.99;nan;52268.72;5048116;28;19948;-68
2023/08/23 04:32:37;;;;;;;;;;;;;;;-144.99;nan;52297.25;5039080;28;20104;-68
2023/08/23 04:35:04;;;;;;;;;;;;;;;-144.99;nan;52264.66;5046032;28;20040;-67
2023/08/23 04:37:30;;;;;;;;;;;;;;;-144.99;nan;52238.16;5040023;28;19950;-67
2023/08/23 04:39:57;;;;;;;;;;;;;;;-144.99;nan;52252.44;5030347;28;19954;-68
2023/08/23 04:42:23;;;;;;;;;;;;;;;-144.99;nan;52244.28;5038836;28;20036;-68
2023/08/23 04:44:50;;;;;;;;;;;;;;;-144.99;nan;52227.97;5037008;28;20004;-68
2023/08/23 04:47:16;;;;;;;;;;;;;;;-144.99;nan;52289.13;5038055;28;19953;-67
2023/08/23 04:49:44;;;;;;;;;;;;;;;-144.99;nan;52240.19;5032584;28;19952;-68
2023/08/23 04:52:10;;;;;;;;;;;;;;;-144.99;nan;52209.63;5028542;28;20012;-68
2023/08/23 04:54:37;;;;;;;;;;;;;;;-144.99;nan;52268.72;5037280;28;19968;-68
2023/08/23 04:57:05;;;;;;;;;;;;;;;-144.99;nan;52256.50;5048315;28;19952;-68
2023/08/23 04:59:32;;;;;;;;;;;;;;;-144.99;nan;52248.34;5036432;28;19950;-63
2023/08/23 05:01:58;;;;;;;;;;;;;;;-144.99;nan;52264.66;5035358;28;20193;-72
2023/08/23 05:04:25;;;;;;;;;;;;;;;-144.99;nan;52260.56;5038906;28;20008;-73
2023/08/23 05:06:52;;;;;;;;;;;;;;;-144.99;nan;52207.59;5045871;28;20505;-71
2023/08/23 05:09:19;;;;;;;;;;;;;;;-144.99;nan;52248.34;5048266;28;20383;-71
2023/08/23 05:11:45;;;;;;;;;;;;;;;-144.99;nan;52211.66;5041588;28;20011;-72
2023/08/23 05:14:12;;;;;;;;;;;;;;;-144.99;nan;52256.50;5038542;28;20008;-72
2023/08/23 05:16:39;;;;;;;;;;;;;;;-144.99;nan;52227.97;4349481;28;10000696;-72
2023/08/23 05:19:05;;;;;;;;;;;;;;;-144.99;nan;52227.97;5040473;28;19953;-71
2023/08/23 05:21:31;;;;;;;;;;;;;;;-144.99;nan;52211.66;5044389;28;20049;-72
2023/08/23 05:23:59;;;;;;;;;;;;;;;-144.99;nan;52230.00;5038055;28;20478;-71
2023/08/23 05:26:26;;;;;;;;;;;;;;;-144.99;nan;52223.88;5048157;28;19945;-72
2023/08/23 05:28:52;;;;;;;;;;;;;;;-144.99;nan;52230.00;5037373;28;19956;-72
2023/08/23 05:31:19;;;;;;;;;;;;;;;-144.99;nan;52244.28;5045904;28;19985;-73
2023/08/23 05:33:46;;;;;;;;;;;;;;;-144.99;nan;52215.75;5030482;28;19975;-71
2023/08/23 05:36:12;;;;;;;;;;;;;;;-144.99;nan;52240.19;5033037;28;19954;-74
2023/08/23 05:38:39;;;;;;;;;;;;;;;-144.99;nan;52248.34;5037614;28;20028;-74
2023/08/23 05:41:07;;;;;;;;;;;;;;;-144.99;nan;52211.66;5037188;28;20051;-76
2023/08/23 05:43:33;;;;;;;;;;;;;;;-144.99;nan;52223.88;5044754;28;20021;-74
2023/08/23 05:46:00;;;;;;;;;;;;;;;-144.99;nan;52232.03;5042755;28;20056;-74
2023/08/23 05:48:26;;;;;;;;;;;;;;;-144.99;nan;52227.97;5039309;28;19952;-76
2023/08/23 05:50:53;;;;;;;;;;;;;;;-144.99;nan;52199.44;5042466;28;20422;-76
2023/08/23 05:53:19;;;;;;;;;;;;;;;-144.99;nan;52199.44;5039485;28;20274;-74
2023/08/23 05:55:46;;;;;;;;;;;;;;;-144.99;nan;52246.31;5042927;28;20030;-75
2023/08/23 05:58:14;;;;;;;;;;;;;;;-144.99;nan;52199.44;5029470;28;20411;-75
2023/08/23 06:00:41;;;;;;;;;;;;;;;-144.99;nan;52185.16;5038427;28;19985;-75
2023/08/23 06:03:07;;;;;;;;;;;;;;;-144.99;nan;52207.59;5046700;28;20007;-75
2023/08/23 06:05:33;;;;;;;;;;;;;;;-144.99;nan;52203.50;5040947;28;19991;-75
2023/08/23 06:08:02;;;;;;;;;;;;;;;-144.99;nan;52207.59;5037162;28;20323;-69
2023/08/23 06:10:28;;;;;;;;;;;;;;;-144.99;nan;52219.81;5032143;28;20373;-76
2023/08/23 06:12:55;;;;;;;;;;;;;;;-144.99;nan;52195.34;5045923;28;19967;-76
2023/08/23 06:15:23;;;;;;;;;;;;;;;-144.99;nan;52203.50;5044171;28;19956;-75
2023/08/23 06:17:50;;;;;;;;;;;;;;;-144.99;nan;52219.81;5039941;28;19946;-75
2023/08/23 06:20:17;;;;;;;;;;;;;;;-144.99;nan;52215.75;5037107;28;20316;-75
2023/08/23 06:22:44;;;;;;;;;;;;;;;-144.99;nan;52207.59;5033483;28;19956;-75
2023/08/23 06:25:11;;;;;;;;;;;;;;;-144.99;nan;52211.66;5040551;28;19953;-76
2023/08/23 06:27:37;;;;;;;;;;;;;;;-144.99;nan;52207.59;5036567;28;20178;-76
2023/08/23 06:30:04;;;;;;;;;;;;;;;-144.99;nan;52207.59;5042065;28;20013;-76
2023/08/23 06:32:32;;;;;;;;;;;;;;;-144.99;nan;52244.28;5036273;28;20032;-77
2023/08/23 06:34:59;;;;;;;;;;;;;;;-144.99;nan;52166.81;5036095;28;20069;-76
2023/08/23 06:37:25;;;;;;;;;;;;;;;-144.99;nan;52199.44;5043722;28;19951;-76
2023/08/23 06:39:52;;;;;;;;;;;;;;;-144.99;nan;52199.44;5046181;28;20044;-75
2023/08/23 06:42:18;;;;;;;;;;;;;;;-144.99;nan;52205.53;5033717;28;20042;-75
2023/08/23 06:44:45;;;;;;;;;;;;;;;-144.99;nan;52207.59;5037553;28;20494;-75
2023/08/23 06:47:12;;;;;;;;;;;;;;;-144.99;nan;52189.25;5038264;28;19982;-75
2023/08/23 06:49:40;;;;;;;;;;;;;;;-144.99;nan;52166.81;5038178;28;20036;-74
2023/08/23 06:52:07;;;;;;;;;;;;;;;-144.99;nan;52221.84;5042461;28;20436;-74
2023/08/23 06:54:33;;;;;;;;;;;;;;;-144.99;nan;52238.16;5045324;28;20073;-75
2023/08/23 06:57:00;;;;;;;;;;;;;;;-144.99;nan;52177.00;5042046;28;19945;-74
2023/08/23 06:59:26;;;;;;;;;;;;;;;-144.99;nan;52223.88;5047887;28;19952;-76
2023/08/23 07:01:53;;;;;;;;;;;;;;;-144.99;nan;52207.59;4687152;28;10000438;-77
2023/08/23 07:04:19;;;;;;;;;;;;;;;-144.99;nan;52170.91;5044020;28;19994;-75
2023/08/23 07:06:47;;;;;;;;;;;;;;;-144.99;nan;52219.81;5043429;28;19993;-75
2023/08/23 07:09:14;;;;;;;;;;;;;;;-144.99;nan;52223.88;5034715;28;19952;-75
2023/08/23 07:11:41;;;;;;;;;;;;;;;-144.99;nan;52146.44;5045894;28;20003;-76
2023/08/23 07:14:08;;;;;;;;;;;;;;;-144.99;nan;52203.50;5031080;28;19964;-76
2023/08/23 07:16:35;;;;;;;;;;;;;;;-144.99;nan;52219.81;5041935;28;20370;-75
2023/08/23 07:19:03;;;;;;;;;;;;;;;-144.99;nan;52172.94;5044269;28;19963;-75
2023/08/23 07:21:30;;;;;;;;;;;;;;;-144.99;nan;52187.19;5047017;28;20324;-75
2023/08/23 07:23:58;;;;;;;;;;;;;;;-144.99;nan;52195.34;5038577;28;20067;-76
2023/08/23 07:26:25;;;;;;;;;;;;;;;-144.99;nan;52248.34;5063626;28;19951;-76
2023/08/23 07:28:51;;;;;;;;;;;;;;;-144.99;nan;52236.13;5069600;28;19941;-76
2023/08/23 07:31:18;;;;;;;;;;;;;;;-144.99;nan;52195.34;5044119;28;19974;-76
2023/08/23 07:33:44;;;;;;;;;;;;;;;-144.99;nan;52199.44;5044853;28;19999;-77
2023/08/23 07:36:11;;;;;;;;;;;;;;;-144.99;nan;52207.59;5042635;28;19949;-76
2023/08/23 07:38:38;;;;;;;;;;;;;;;-144.99;nan;52128.09;5029182;28;19986;-76
2023/08/23 07:41:05;;;;;;;;;;;;;;;-144.99;nan;52187.19;5043644;28;20038;-76
2023/08/23 07:43:32;;;;;;;;;;;;;;;-144.99;nan;52162.75;5033779;28;19971;-76
2023/08/23 07:45:59;;;;;;;;;;;;;;;-144.99;nan;52195.34;5042004;28;19981;-76
2023/08/23 07:48:26;;;;;;;;;;;;;;;-144.99;nan;52199.44;5041483;28;20031;-76
2023/08/23 07:50:53;;;;;;;;;;;;;;;-144.99;nan;52172.94;5040751;28;20059;-76
2023/08/23 07:53:20;;;;;;;;;;;;;;;-144.99;nan;52207.59;5034482;28;20107;-71
2023/08/23 07:55:46;;;;;;;;;;;;;;;-144.99;nan;52170.91;5046614;28;20246;-76
2023/08/23 07:58:14;;;;;;;;;;;;;;;-144.99;nan;52215.75;5042064;28;20030;-76
2023/08/23 08:00:41;;;;;;;;;;;;;;;-144.99;nan;52195.34;5036324;28;19950;-76
2023/08/23 08:03:08;;;;;;;;;;;;;;;-144.99;nan;52199.44;5032638;28;20257;-76
2023/08/23 08:05:34;;;;;;;;;;;;;;;-144.99;nan;52225.94;5043750;28;19953;-76
2023/08/23 08:08:02;;;;;;;;;;;;;;;-144.99;nan;52187.19;5048052;28;20040;-77
2023/08/23 08:10:28;;;;;;;;;;;;;;;-144.99;nan;52195.34;5045462;28;20031;-76
2023/08/23 08:12:55;;;;;;;;;;;;;;;-144.99;nan;52181.09;5040162;28;20061;-76
2023/08/23 08:15:23;;;;;;;;;;;;;;;-144.99;nan;52162.75;5037582;28;20006;-76
2023/08/23 08:17:51;;;;;;;;;;;;;;;-144.99;nan;52199.44;5039062;28;20202;-76
2023/08/23 08:20:18;;;;;;;;;;;;;;;-144.99;nan;52215.75;5040884;28;20043;-77
2023/08/23 08:22:45;;;;;;;;;;;;;;;-144.99;nan;52187.19;5038243;28;20017;-76
2023/08/23 08:25:12;;;;;;;;;;;;;;;-144.99;nan;52162.75;5036024;28;20038;-77
2023/08/23 08:27:39;;;;;;;;;;;;;;;-144.99;nan;52191.28;5039723;28;19948;-77
2023/08/23 08:30:06;;;;;;;;;;;;;;;-144.99;nan;52179.06;5037997;28;20438;-77
2023/08/23 08:32:34;;;;;;;;;;;;;;;-144.99;nan;52166.81;5038874;28;20049;-76
2023/08/23 08:35:01;;;;;;;;;;;;;;;-144.99;nan;52189.25;5020538;28;20067;-76
2023/08/23 08:37:27;;;;;;;;;;;;;;;-144.99;nan;52121.97;5041267;28;20271;-76
2023/08/23 08:39:54;;;;;;;;;;;;;;;-144.99;nan;52170.91;5044831;28;19952;-77
2023/08/23 08:42:20;;;;;;;;;;;;;;;-144.99;nan;52115.88;5040495;28;20011;-76
2023/08/23 08:44:47;;;;;;;;;;;;;;;-144.99;nan;52126.06;5042550;28;20044;-76
2023/08/23 08:47:14;;;;;;;;;;;;;;;-144.99;nan;52146.44;5044953;28;19944;-76
2023/08/23 08:49:42;;;;;;;;;;;;;;;-144.99;nan;52130.13;5047353;28;19952;-77
2023/08/23 08:52:08;;;;;;;;;;;;;;;-144.99;nan;52130.13;5041354;28;20056;-76
2023/08/23 08:54:35;;;;;;;;;;;;;;;-144.99;nan;52138.28;5037889;28;19962;-78
2023/08/23 08:57:02;;;;;;;;;;;;;;;-144.99;nan;52138.28;5044742;28;19950;-77
2023/08/23 08:59:29;;;;;;;;;;;;;;;-144.99;nan;52162.75;5040430;28;19978;-77
2023/08/23 09:01:58;;;;;;;;;;;;;;;-144.99;nan;52111.78;5035891;28;20039;-77
2023/08/23 09:04:25;;;;;;;;;;;;;;;-144.99;nan;52101.59;5040985;28;19995;-78
2023/08/23 09:06:54;;;;;;;;;;;;;;;-144.99;nan;52117.91;5048345;28;20044;-77
2023/08/23 09:09:21;;;;;;;;;;;;;;;-144.99;nan;52148.47;5047178;28;19995;-76
2023/08/23 09:11:47;;;;;;;;;;;;;;;-144.99;nan;52111.78;5034425;28;19954;-76
2023/08/23 09:14:15;;;;;;;;;;;;;;;-144.99;nan;52152.56;5049276;28;20071;-75
2023/08/23 09:16:41;;;;;;;;;;;;;;;-144.99;nan;52126.06;5047875;28;20012;-76
2023/08/23 09:19:09;;;;;;;;;;;;;;;-144.99;nan;52113.84;5045715;28;19948;-75
2023/08/23 09:21:35;;;;;;;;;;;;;;;-144.99;nan;52089.38;5042882;28;19951;-76
2023/08/23 09:24:04;;;;;;;;;;;;;;;-144.99;nan;52134.22;5037987;28;20021;-76
2023/08/23 09:26:30;;;;;;;;;;;;;;;-144.99;nan;52101.59;5042532;28;20359;-76
2023/08/23 09:28:57;;;;;;;;;;;;;;;-144.99;nan;52130.13;5045849;28;20015;-76
2023/08/23 09:31:23;;;;;;;;;;;;;;;-144.99;nan;52089.38;5046193;28;19992;-76
2023/08/23 09:33:50;;;;;;;;;;;;;;;-144.99;nan;52117.91;5031689;28;20472;-75
2023/08/23 09:36:24;;;;;;;;;;;;;;;-144.99;nan;52126.06;5043038;28;20097;-76
2023/08/23 09:38:51;;;;;;;;;;;;;;;-144.99;nan;52162.75;5039935;28;20372;-75
2023/08/23 09:41:19;;;;;;;;;;;;;;;-144.99;nan;52105.69;5043093;28;20009;-76
2023/08/23 09:43:47;;;;;;;;;;;;;;;-144.99;nan;52130.13;5036081;28;19972;-75
2023/08/23 09:46:14;;;;;;;;;;;;;;;-144.99;nan;52089.38;5046160;28;20012;-76
2023/08/23 09:48:42;;;;;;;;;;;;;;;-144.99;nan;52077.16;5042449;28;20277;-78
2023/08/23 09:51:09;;;;;;;;;;;;;;;-144.99;nan;52093.44;5045976;28;19948;-77
2023/08/23 09:53:38;;;;;;;;;;;;;;;-144.99;nan;52105.69;5034846;28;20499;-74
2023/08/23 09:56:05;;;;;;;;;;;;;;;-144.99;nan;52121.97;5039438;28;19974;-67
2023/08/23 09:58:33;;;;;;;;;;;;;;;-144.99;nan;52105.69;5043202;28;19942;-68
2023/08/23 10:00:59;;;;;;;;;;;;;;;-144.99;nan;52060.84;5043441;28;19985;-68
2023/08/23 10:03:26;;;;;;;;;;;;;;;-144.99;nan;52101.59;5044006;28;20004;-67
2023/08/23 10:05:53;;;;;;;;;;;;;;;-144.99;nan;52117.91;5045642;28;19956;-67
2023/08/23 10:08:19;;;;;;;;;;;;;;;-144.99;nan;52097.53;5037422;28;19995;-67
2023/08/23 10:10:49;;;;;;;;;;;;;;;-144.99;nan;52105.69;5046920;28;19984;-67
2023/08/23 10:13:16;;;;;;;;;;;;;;;-144.99;nan;52077.16;5042822;28;19972;-67
2023/08/23 10:15:44;;;;;;;;;;;;;;;-144.99;nan;52113.84;5044025;28;19963;-67
2023/08/23 10:18:13;;;;;;;;;;;;;;;-144.99;nan;52089.38;5047167;28;20058;-68
2023/08/23 10:20:39;;;;;;;;;;;;;;;-144.99;nan;52089.38;5048593;28;19990;-67
2023/08/23 10:23:10;;;;;;;;;;;;;;;-144.99;nan;52056.78;5045607;28;20435;-67
2023/08/23 10:25:37;;;;;;;;;;;;;;;-144.99;nan;52081.22;5038523;28;19952;-67
2023/08/23 10:28:04;;;;;;;;;;;;;;;-144.99;nan;52048.63;5038742;28;19991;-67
2023/08/23 10:30:31;;;;;;;;;;;;;;;-144.99;nan;52085.31;5039912;28;20790;-66
2023/08/23 10:33:09;;;;;;;;;;;;;;;-144.99;nan;52048.63;5040071;28;20031;-67
2023/08/23 10:35:36;;;;;;;;;;;;;;;-144.99;nan;52105.69;5036872;28;19973;-66
2023/08/23 10:38:03;;;;;;;;;;;;;;;-144.99;nan;52022.13;5039770;28;20005;-68
2023/08/23 10:40:31;;;;;;;;;;;;;;;-144.99;nan;52020.09;5038949;28;19948;-68
2023/08/23 10:42:58;;;;;;;;;;;;;;;-144.99;nan;51979.31;5048362;28;20065;-67
2023/08/23 10:45:25;;;;;;;;;;;;;;;-144.99;nan;52020.09;5039338;28;20553;-68
2023/08/23 10:47:52;;;;;;;;;;;;;;;-144.99;nan;52026.19;5040235;28;20324;-68
2023/08/23 10:50:20;;;;;;;;;;;;;;;-144.99;nan;51950.78;5040701;28;20033;-69
2023/08/23 10:52:47;;;;;;;;;;;;;;;-144.99;nan;51958.94;5048084;28;20441;-67
2023/08/23 10:55:13;;;;;;;;;;;;;;;-144.99;nan;52109.75;5042580;28;20059;-67
2023/08/23 10:57:40;;;;;;;;;;;;;;;-144.99;nan;51954.88;5036911;28;20381;-67
2023/08/23 11:00:07;;;;;;;;;;;;;;;-144.99;nan;52032.31;5040907;28;19987;-67
2023/08/23 11:02:34;;;;;;;;;;;;;;;-144.99;nan;51997.66;5036618;28;19964;-68
2023/08/23 11:05:00;;;;;;;;;;;;;;;-144.99;nan;51958.94;5037494;28;19959;-67
2023/08/23 11:07:28;;;;;;;;;;;;;;;-144.99;nan;52089.38;5044426;28;20494;-68
2023/08/23 11:09:55;;;;;;;;;;;;;;;-144.99;nan;52113.84;5044170;28;20489;-68
2023/08/23 11:12:22;;;;;;;;;;;;;;;-144.99;nan;51971.16;5039127;28;19998;-67
2023/08/23 11:14:49;;;;;;;;;;;;;;;-144.99;nan;51946.72;5049312;28;20415;-68
2023/08/23 11:17:16;;;;;;;;;;;;;;;-144.99;nan;52044.53;5043900;28;20391;-66
2023/08/23 11:19:43;;;;;;;;;;;;;;;-144.99;nan;52109.75;5042007;28;20142;-67
2023/08/23 11:22:09;;;;;;;;;;;;;;;-144.99;nan;52085.31;5039711;28;20210;-67
2023/08/23 11:24:38;;;;;;;;;;;;;;;-144.99;nan;51977.28;5046176;28;19987;-67
2023/08/23 11:27:11;;;;;;;;;;;;;;;-144.99;nan;52121.97;5035810;28;20414;-66
2023/08/23 11:29:37;;;;;;;;;;;;;;;-144.99;nan;51967.09;5031000;28;20047;-66
2023/08/23 11:32:04;;;;;;;;;;;;;;;-144.99;nan;51971.16;5047379;28;20455;-65
2023/08/23 11:34:31;;;;;;;;;;;;;;;-144.99;nan;51934.50;5039937;28;20507;-66
2023/08/23 11:36:58;;;;;;;;;;;;;;;-144.99;nan;52048.63;5035959;28;20081;-67
2023/08/23 11:39:29;;;;;;;;;;;;;;;-144.99;nan;51963.03;5044569;28;19998;-66
2023/08/23 11:41:59;;;;;;;;;;;;;;;-144.99;nan;51963.03;5042425;28;20016;-68
2023/08/23 11:44:28;;;;;;;;;;;;;;;-144.99;nan;51944.69;5047314;28;19977;-66
2023/08/23 11:46:57;;;;;;;;;;;;;;;-144.99;nan;51901.88;5040546;28;19979;-67
2023/08/23 11:49:24;;;;;;;;;;;;;;;-144.99;nan;51926.34;5037186;28;20258;-69
2023/08/23 11:51:50;;;;;;;;;;;;;;;-144.99;nan;51920.22;5045326;28;20335;-66
2023/08/23 11:54:17;;;;;;;;;;;;;;;-144.99;nan;51930.41;5038993;28;19954;-66
2023/08/23 11:56:44;;;;;;;;;;;;;;;-144.99;nan;51920.22;5036724;28;20364;-67
2023/08/23 11:59:13;;;;;;;;;;;;;;;-144.99;nan;51954.88;5030316;28;20068;-66
2023/08/23 12:01:42;;;;;;;;;;;;;;;-144.99;nan;51946.72;5035989;28;19967;-67
2023/08/23 12:04:08;;;;;;;;;;;;;;;-144.99;nan;51934.50;5033660;28;19959;-67
2023/08/23 12:06:35;;;;;;;;;;;;;;;-144.99;nan;51932.44;5041557;28;20463;-66
2023/08/23 12:09:01;;;;;;;;;;;;;;;-144.99;nan;51934.50;5036108;28;20432;-68
2023/08/23 12:11:28;;;;;;;;;;;;;;;-144.99;nan;51905.97;5044742;28;19954;-66
2023/08/23 12:13:54;;;;;;;;;;;;;;;-144.99;nan;51918.19;5038089;28;19983;-66
2023/08/23 12:16:22;;;;;;;;;;;;;;;-144.99;nan;51956.91;5042142;28;20086;-66
2023/08/23 12:18:49;;;;;;;;;;;;;;;-144.99;nan;51930.41;5034815;28;19983;-67
2023/08/23 12:21:15;;;;;;;;;;;;;;;-144.99;nan;51952.81;5039383;28;19946;-66
2023/08/23 12:23:42;;;;;;;;;;;;;;;-144.99;nan;51926.34;5038847;28;19966;-68
2023/08/23 12:26:08;;;;;;;;;;;;;;;-144.99;nan;51893.72;5045613;28;20432;-67
2023/08/23 12:28:37;;;;;;;;;;;;;;;-144.99;nan;51938.56;5024927;28;20414;-67
2023/08/23 12:31:03;;;;;;;;;;;;;;;-144.99;nan;51918.19;5031199;28;19944;-67
2023/08/23 12:33:31;;;;;;;;;;;;;;;-144.99;nan;52044.53;5040048;28;19968;-66
2023/08/23 12:35:58;;;;;;;;;;;;;;;-144.99;nan;52044.53;5036343;28;19964;-67
2023/08/23 12:38:24;;;;;;;;;;;;;;;-144.99;nan;51956.91;5035380;28;19984;-66
2023/08/23 12:40:51;;;;;;;;;;;;;;;-144.99;nan;51942.63;5032406;28;20041;-66
2023/08/23 12:45:48;;;;;;;;;;;;;;;-144.99;nan;51954.88;5045651;22;20359;-65